Česky Dansk Deutsch English Español Suomi Français Magyar Italiano Nederlands norsk Polski Português svenska Türkçe

 

Het Weer

Astana (Kazakhstan)

22:00, 19 augustus 2016 (GMT)

NWNNE
WE
SWSSE
Home            
Astana Karaganda Omsk Kostanay Chelyabinsk-Balandino Kzyl-Orda Barnaul Aralskoe More Novosibirsk Ekaterinburg Bishkek/Manas Airport Almaty Shymkent Aktjubinsk Kemerovo Yining Novokuznetsk Hanty-Mansijsk Ufa Tashkent Surgut Nizhnevartovsk Orenburg / Tsentralny

Om een weerknop op uw website of weblog te plaatsen, copieer onderstaande code en plak die in uw pagina. In het eerste vakje staat HTML-code, in het tweede vakje UBB-code.


Add to Google

Details

Wind speed:3 bf, 7.8 kn, 4 m/s, 8.9 miles/h, 14.4 km/h
Wind direction:NNE, 030°
Visibility:Greater than 10000 m, 10 km, 32800 ft, 6.2 miles
Clouds:CAVOC
Temperature:18°C, 64°F
Dew-point:14°C, 57°F
Atmospheric pressure:1019 hPa, 764.3 mmHg, 30.09 inHg, 1.006 atm
Relative humidity:77.5 %
METAR:UACC 192200Z 03004MPS CAVOK 18/14 Q1019 R04/0/0070 NOSIG RMK QFE733/0977

Snelkoppelingen

Actuele weersinformatie van de hele wereld. Voeg locaties toe met het plus (+) symbool. Deze snelkoppelingen kunnen worden toegevoegd aan Google.

Lid van de Technetium groep

website free tracking
StatCounter NetStat W3C Validator

18-08-2019 05:07:11
astro.technetium.be money.technetium.be phote.technetium.be tafeltennistafel.technetium.be www.ligfiets.net